sensor_id;sensor_type;location;lat;lon;timestamp;pressure;altitude;pressure_sealevel;temperature;humidity
73767;BME280;62074;43.530;-5.646;2022-09-12T00:01:23;100751.31;;;22.04;66.41
73767;BME280;62074;43.530;-5.646;2022-09-12T00:03:54;100726.59;;;21.92;66.42
73767;BME280;62074;43.530;-5.646;2022-09-12T00:06:27;100686.69;;;22.45;65.61
73767;BME280;62074;43.530;-5.646;2022-09-12T00:08:54;100704.31;;;22.83;64.37
73767;BME280;62074;43.530;-5.646;2022-09-12T00:11:20;100710.22;;;22.33;65.08
73767;BME280;62074;43.530;-5.646;2022-09-12T00:13:46;100700.91;;;22.43;65.55
73767;BME280;62074;43.530;-5.646;2022-09-12T00:16:20;100692.22;;;22.68;64.32
73767;BME280;62074;43.530;-5.646;2022-09-12T00:18:46;100686.63;;;22.26;64.98
73767;BME280;62074;43.530;-5.646;2022-09-12T00:21:13;100701.72;;;22.25;64.99
73767;BME280;62074;43.530;-5.646;2022-09-12T00:23:38;100697.97;;;22.11;65.17
73767;BME280;62074;43.530;-5.646;2022-09-12T00:26:05;100703.97;;;21.94;65.79
73767;BME280;62074;43.530;-5.646;2022-09-12T00:28:33;100685.53;;;21.74;65.94
73767;BME280;62074;43.530;-5.646;2022-09-12T00:31:03;100693.34;;;21.72;66.18
73767;BME280;62074;43.530;-5.646;2022-09-12T00:33:29;100707.19;;;21.77;66.46
73767;BME280;62074;43.530;-5.646;2022-09-12T00:35:55;100692.22;;;21.73;66.75
73767;BME280;62074;43.530;-5.646;2022-09-12T00:38:21;100690.84;;;21.70;66.50
73767;BME280;62074;43.530;-5.646;2022-09-12T00:40:47;100682.19;;;21.43;67.24
73767;BME280;62074;43.530;-5.646;2022-09-12T00:45:55;100694.16;;;22.01;65.82
73767;BME280;62074;43.530;-5.646;2022-09-12T00:48:31;100679.28;;;22.11;66.42
73767;BME280;62074;43.530;-5.646;2022-09-12T00:50:58;100672.16;;;22.66;64.47
73767;BME280;62074;43.530;-5.646;2022-09-12T00:53:24;100647.06;;;22.24;64.77
73767;BME280;62074;43.530;-5.646;2022-09-12T00:55:51;100667.59;;;22.09;66.19
73767;BME280;62074;43.530;-5.646;2022-09-12T00:58:29;100668.56;;;21.70;67.21
73767;BME280;62074;43.530;-5.646;2022-09-12T01:00:57;100653.19;;;22.02;66.99
73767;BME280;62074;43.530;-5.646;2022-09-12T01:03:24;100652.53;;;22.10;66.00
73767;BME280;62074;43.530;-5.646;2022-09-12T01:06:06;100658.03;;;21.91;66.68
73767;BME280;62074;43.530;-5.646;2022-09-12T01:08:34;100644.13;;;21.86;66.81
73767;BME280;62074;43.530;-5.646;2022-09-12T01:11:02;100657.53;;;21.84;66.51
73767;BME280;62074;43.530;-5.646;2022-09-12T01:13:28;100648.13;;;21.75;66.62
73767;BME280;62074;43.530;-5.646;2022-09-12T01:15:54;100644.41;;;21.61;67.35
73767;BME280;62074;43.530;-5.646;2022-09-12T01:21:20;100657.25;;;21.57;67.20
73767;BME280;62074;43.530;-5.646;2022-09-12T01:24:02;100668.63;;;21.60;67.18
73767;BME280;62074;43.530;-5.646;2022-09-12T01:29:31;100651.91;;;21.60;67.10
73767;BME280;62074;43.530;-5.646;2022-09-12T01:32:18;100651.22;;;21.50;67.77
73767;BME280;62074;43.530;-5.646;2022-09-12T01:37:25;100654.28;;;21.48;67.81
73767;BME280;62074;43.530;-5.646;2022-09-12T01:42:56;100647.09;;;21.42;68.20
73767;BME280;62074;43.530;-5.646;2022-09-12T01:45:38;100654.47;;;21.28;68.59
73767;BME280;62074;43.530;-5.646;2022-09-12T01:50:42;100647.34;;;21.12;69.46
73767;BME280;62074;43.530;-5.646;2022-09-12T01:53:15;100635.00;;;21.18;68.87
73767;BME280;62074;43.530;-5.646;2022-09-12T01:55:47;100621.72;;;21.10;68.62
73767;BME280;62074;43.530;-5.646;2022-09-12T01:58:21;100621.44;;;21.11;68.79
73767;BME280;62074;43.530;-5.646;2022-09-12T02:06:34;100596.97;;;20.74;69.42
73767;BME280;62074;43.530;-5.646;2022-09-12T02:09:24;100608.16;;;20.64;70.46
73767;BME280;62074;43.530;-5.646;2022-09-12T02:11:56;100592.16;;;20.85;70.08
73767;BME280;62074;43.530;-5.646;2022-09-12T02:14:25;100569.22;;;20.64;70.46
73767;BME280;62074;43.530;-5.646;2022-09-12T02:16:59;100575.06;;;20.62;70.43
73767;BME280;62074;43.530;-5.646;2022-09-12T02:19:29;100579.22;;;20.65;70.08
73767;BME280;62074;43.530;-5.646;2022-09-12T02:21:59;100586.16;;;20.67;69.97
73767;BME280;62074;43.530;-5.646;2022-09-12T02:24:37;100574.47;;;20.71;70.22
73767;BME280;62074;43.530;-5.646;2022-09-12T02:29:47;100554.75;;;20.62;69.91
73767;BME280;62074;43.530;-5.646;2022-09-12T02:32:23;100567.00;;;20.61;69.97
73767;BME280;62074;43.530;-5.646;2022-09-12T02:35:02;100569.78;;;20.61;70.08
73767;BME280;62074;43.530;-5.646;2022-09-12T02:40:03;100568.56;;;20.33;70.54
73767;BME280;62074;43.530;-5.646;2022-09-12T02:42:31;100572.13;;;20.49;69.72
73767;BME280;62074;43.530;-5.646;2022-09-12T02:44:56;100562.88;;;20.09;70.88
73767;BME280;62074;43.530;-5.646;2022-09-12T02:47:35;100564.13;;;20.32;70.65
73767;BME280;62074;43.530;-5.646;2022-09-12T02:50:02;100570.53;;;20.32;70.15
73767;BME280;62074;43.530;-5.646;2022-09-12T02:52:30;100555.53;;;20.23;69.93
73767;BME280;62074;43.530;-5.646;2022-09-12T02:54:56;100571.91;;;20.35;70.58
73767;BME280;62074;43.530;-5.646;2022-09-12T02:57:22;100569.31;;;20.49;70.56
73767;BME280;62074;43.530;-5.646;2022-09-12T02:59:50;100561.91;;;20.29;70.56
73767;BME280;62074;43.530;-5.646;2022-09-12T03:02:28;100552.00;;;20.18;70.89
73767;BME280;62074;43.530;-5.646;2022-09-12T03:10:12;100554.03;;;20.46;70.76
73767;BME280;62074;43.530;-5.646;2022-09-12T03:16:11;100556.84;;;20.41;70.89
73767;BME280;62074;43.530;-5.646;2022-09-12T03:21:07;100532.16;;;20.29;70.72
73767;BME280;62074;43.530;-5.646;2022-09-12T03:23:46;100544.00;;;20.50;70.97
73767;BME280;62074;43.530;-5.646;2022-09-12T03:26:20;100531.69;;;20.61;70.28
73767;BME280;62074;43.530;-5.646;2022-09-12T03:28:48;100532.75;;;20.65;70.34
73767;BME280;62074;43.530;-5.646;2022-09-12T03:31:16;100542.09;;;20.46;70.59
73767;BME280;62074;43.530;-5.646;2022-09-12T03:33:42;100526.25;;;20.41;70.58
73767;BME280;62074;43.530;-5.646;2022-09-12T03:36:26;100528.56;;;20.24;71.73
73767;BME280;62074;43.530;-5.646;2022-09-12T03:38:52;100511.69;;;20.15;71.51
73767;BME280;62074;43.530;-5.646;2022-09-12T03:41:19;100530.66;;;20.03;72.21
73767;BME280;62074;43.530;-5.646;2022-09-12T03:43:45;100543.38;;;20.14;72.06
73767;BME280;62074;43.530;-5.646;2022-09-12T03:46:11;100522.72;;;20.30;71.57
73767;BME280;62074;43.530;-5.646;2022-09-12T03:48:38;100532.47;;;20.23;71.34
73767;BME280;62074;43.530;-5.646;2022-09-12T03:51:05;100515.63;;;20.09;72.25
73767;BME280;62074;43.530;-5.646;2022-09-12T03:53:31;100512.44;;;20.26;71.85
73767;BME280;62074;43.530;-5.646;2022-09-12T03:55:57;100516.81;;;20.42;70.92
73767;BME280;62074;43.530;-5.646;2022-09-12T03:58:24;100505.16;;;20.35;70.72
73767;BME280;62074;43.530;-5.646;2022-09-12T04:00:50;100525.16;;;20.42;70.94
73767;BME280;62074;43.530;-5.646;2022-09-12T04:03:15;100511.44;;;20.12;71.98
73767;BME280;62074;43.530;-5.646;2022-09-12T04:05:41;100528.94;;;20.12;71.92
73767;BME280;62074;43.530;-5.646;2022-09-12T04:08:06;100512.84;;;20.09;71.54
73767;BME280;62074;43.530;-5.646;2022-09-12T04:10:32;100505.06;;;20.06;72.29
73767;BME280;62074;43.530;-5.646;2022-09-12T04:12:57;100502.78;;;20.18;71.79
73767;BME280;62074;43.530;-5.646;2022-09-12T04:15:23;100505.75;;;20.32;71.36
73767;BME280;62074;43.530;-5.646;2022-09-12T04:17:49;100517.22;;;20.20;71.41
73767;BME280;62074;43.530;-5.646;2022-09-12T04:20:14;100521.13;;;20.19;71.61
73767;BME280;62074;43.530;-5.646;2022-09-12T04:22:40;100490.84;;;20.13;71.52
73767;BME280;62074;43.530;-5.646;2022-09-12T04:25:06;100498.91;;;20.14;71.61
73767;BME280;62074;43.530;-5.646;2022-09-12T04:27:32;100503.34;;;20.15;71.60
73767;BME280;62074;43.530;-5.646;2022-09-12T04:29:59;100513.00;;;20.23;71.31
73767;BME280;62074;43.530;-5.646;2022-09-12T04:32:25;100486.53;;;19.96;72.02
73767;BME280;62074;43.530;-5.646;2022-09-12T04:34:50;100491.59;;;20.23;71.32
73767;BME280;62074;43.530;-5.646;2022-09-12T04:37:17;100487.78;;;20.19;71.36
73767;BME280;62074;43.530;-5.646;2022-09-12T04:39:42;100473.56;;;19.77;72.96
73767;BME280;62074;43.530;-5.646;2022-09-12T04:42:08;100482.94;;;19.86;72.98
73767;BME280;62074;43.530;-5.646;2022-09-12T04:44:34;100469.88;;;19.91;72.66
73767;BME280;62074;43.530;-5.646;2022-09-12T04:46:59;100462.66;;;19.85;72.67
73767;BME280;62074;43.530;-5.646;2022-09-12T04:49:25;100470.69;;;19.92;72.62
73767;BME280;62074;43.530;-5.646;2022-09-12T04:51:52;100463.47;;;19.91;72.41
73767;BME280;62074;43.530;-5.646;2022-09-12T04:54:19;100467.34;;;19.95;72.47
73767;BME280;62074;43.530;-5.646;2022-09-12T04:56:46;100437.72;;;19.80;72.92
73767;BME280;62074;43.530;-5.646;2022-09-12T04:59:14;100462.81;;;20.04;72.59
73767;BME280;62074;43.530;-5.646;2022-09-12T05:01:40;100449.31;;;19.87;72.83
73767;BME280;62074;43.530;-5.646;2022-09-12T05:04:06;100462.72;;;19.80;73.25
73767;BME280;62074;43.530;-5.646;2022-09-12T05:06:35;100458.31;;;19.69;73.07
73767;BME280;62074;43.530;-5.646;2022-09-12T05:09:03;100457.16;;;19.80;72.49
73767;BME280;62074;43.530;-5.646;2022-09-12T05:11:32;100449.69;;;19.76;72.81
73767;BME280;62074;43.530;-5.646;2022-09-12T05:13:58;100453.47;;;19.95;71.89
73767;BME280;62074;43.530;-5.646;2022-09-12T05:16:25;100453.91;;;20.07;71.59
73767;BME280;62074;43.530;-5.646;2022-09-12T05:18:51;100469.56;;;19.98;72.34
73767;BME280;62074;43.530;-5.646;2022-09-12T05:21:19;100479.72;;;19.69;73.65
73767;BME280;62074;43.530;-5.646;2022-09-12T05:23:46;100470.81;;;19.72;73.02
73767;BME280;62074;43.530;-5.646;2022-09-12T05:26:15;100471.34;;;19.79;73.15
73767;BME280;62074;43.530;-5.646;2022-09-12T05:28:41;100478.56;;;19.80;73.29
73767;BME280;62074;43.530;-5.646;2022-09-12T05:31:11;100460.81;;;19.71;73.46
73767;BME280;62074;43.530;-5.646;2022-09-12T05:33:38;100478.28;;;19.81;73.47
73767;BME280;62074;43.530;-5.646;2022-09-12T05:36:06;100455.22;;;19.81;73.34
73767;BME280;62074;43.530;-5.646;2022-09-12T05:38:36;100448.00;;;19.80;73.56
73767;BME280;62074;43.530;-5.646;2022-09-12T05:41:03;100462.66;;;19.90;73.52
73767;BME280;62074;43.530;-5.646;2022-09-12T05:43:31;100466.00;;;19.87;73.13
73767;BME280;62074;43.530;-5.646;2022-09-12T05:46:02;100450.78;;;19.80;73.32
73767;BME280;62074;43.530;-5.646;2022-09-12T05:48:28;100465.91;;;20.02;72.82
73767;BME280;62074;43.530;-5.646;2022-09-12T05:51:01;100479.44;;;20.14;72.27
73767;BME280;62074;43.530;-5.646;2022-09-12T05:53:29;100472.88;;;20.00;73.13
73767;BME280;62074;43.530;-5.646;2022-09-12T05:56:05;100480.88;;;20.07;72.95
73767;BME280;62074;43.530;-5.646;2022-09-12T05:58:32;100478.75;;;20.38;73.20
73767;BME280;62074;43.530;-5.646;2022-09-12T06:01:05;100482.97;;;20.64;71.40
73767;BME280;62074;43.530;-5.646;2022-09-12T06:03:39;100477.25;;;20.50;71.04
73767;BME280;62074;43.530;-5.646;2022-09-12T06:06:06;100486.94;;;20.58;71.83
73767;BME280;62074;43.530;-5.646;2022-09-12T06:08:32;100455.56;;;20.52;70.25
73767;BME280;62074;43.530;-5.646;2022-09-12T06:11:00;100474.59;;;20.30;71.64
73767;BME280;62074;43.530;-5.646;2022-09-12T06:13:27;100474.09;;;20.23;72.46
73767;BME280;62074;43.530;-5.646;2022-09-12T06:15:53;100477.66;;;20.33;72.21
73767;BME280;62074;43.530;-5.646;2022-09-12T06:18:19;100424.19;;;20.08;72.07
73767;BME280;62074;43.530;-5.646;2022-09-12T06:20:45;100458.03;;;20.15;72.71
73767;BME280;62074;43.530;-5.646;2022-09-12T06:23:11;100446.00;;;19.85;73.85
73767;BME280;62074;43.530;-5.646;2022-09-12T06:25:37;100448.44;;;19.97;73.90
73767;BME280;62074;43.530;-5.646;2022-09-12T06:28:03;100449.81;;;19.99;73.83
73767;BME280;62074;43.530;-5.646;2022-09-12T06:30:28;100445.03;;;20.05;74.06
73767;BME280;62074;43.530;-5.646;2022-09-12T06:32:54;100465.16;;;20.31;73.30
73767;BME280;62074;43.530;-5.646;2022-09-12T06:35:21;100470.31;;;20.48;72.26
73767;BME280;62074;43.530;-5.646;2022-09-12T06:37:48;100478.09;;;20.51;72.55
73767;BME280;62074;43.530;-5.646;2022-09-12T06:40:13;100479.78;;;20.47;72.79
73767;BME280;62074;43.530;-5.646;2022-09-12T06:42:39;100475.91;;;20.43;73.02
73767;BME280;62074;43.530;-5.646;2022-09-12T06:45:05;100481.81;;;20.36;73.17
73767;BME280;62074;43.530;-5.646;2022-09-12T06:47:31;100483.16;;;20.44;72.95
73767;BME280;62074;43.530;-5.646;2022-09-12T06:49:57;100465.06;;;20.46;72.92
73767;BME280;62074;43.530;-5.646;2022-09-12T06:52:22;100480.59;;;20.52;72.94
73767;BME280;62074;43.530;-5.646;2022-09-12T06:54:48;100469.34;;;20.28;73.27
73767;BME280;62074;43.530;-5.646;2022-09-12T06:57:13;100469.66;;;20.22;73.68
73767;BME280;62074;43.530;-5.646;2022-09-12T06:59:39;100473.50;;;20.31;73.80
73767;BME280;62074;43.530;-5.646;2022-09-12T07:02:05;100495.31;;;20.53;73.12
73767;BME280;62074;43.530;-5.646;2022-09-12T07:04:30;100472.44;;;20.61;72.70
73767;BME280;62074;43.530;-5.646;2022-09-12T07:06:57;100469.03;;;20.69;72.01
73767;BME280;62074;43.530;-5.646;2022-09-12T07:09:23;100483.38;;;20.81;72.23
73767;BME280;62074;43.530;-5.646;2022-09-12T07:11:48;100464.28;;;20.69;72.52
73767;BME280;62074;43.530;-5.646;2022-09-12T07:14:14;100479.84;;;20.99;71.18
73767;BME280;62074;43.530;-5.646;2022-09-12T07:16:40;100465.41;;;20.97;71.53
73767;BME280;62074;43.530;-5.646;2022-09-12T07:19:06;100462.09;;;20.95;71.66
73767;BME280;62074;43.530;-5.646;2022-09-12T07:21:32;100455.53;;;21.10;71.11
73767;BME280;62074;43.530;-5.646;2022-09-12T07:24:04;100464.66;;;21.16;71.05
73767;BME280;62074;43.530;-5.646;2022-09-12T07:28:56;100450.75;;;21.40;70.01
73767;BME280;62074;43.530;-5.646;2022-09-12T07:31:24;100454.06;;;21.42;70.41
73767;BME280;62074;43.530;-5.646;2022-09-12T07:33:50;100455.31;;;21.54;69.33
73767;BME280;62074;43.530;-5.646;2022-09-12T07:36:18;100438.38;;;21.51;69.27
73767;BME280;62074;43.530;-5.646;2022-09-12T07:38:44;100460.66;;;21.51;69.89
73767;BME280;62074;43.530;-5.646;2022-09-12T07:41:25;100450.78;;;21.58;69.11
73767;BME280;62074;43.530;-5.646;2022-09-12T07:46:17;100452.28;;;21.51;70.14
73767;BME280;62074;43.530;-5.646;2022-09-12T07:48:43;100436.31;;;21.56;69.73
73767;BME280;62074;43.530;-5.646;2022-09-12T07:51:10;100443.72;;;21.66;69.84
73767;BME280;62074;43.530;-5.646;2022-09-12T07:53:38;100449.31;;;21.66;69.88
73767;BME280;62074;43.530;-5.646;2022-09-12T07:56:06;100447.69;;;21.60;70.50
73767;BME280;62074;43.530;-5.646;2022-09-12T07:58:33;100444.78;;;21.51;71.23
73767;BME280;62074;43.530;-5.646;2022-09-12T08:01:15;100430.59;;;21.48;70.77
73767;BME280;62074;43.530;-5.646;2022-09-12T08:03:42;100434.06;;;21.58;70.71
73767;BME280;62074;43.530;-5.646;2022-09-12T08:06:13;100432.34;;;21.62;70.88
73767;BME280;62074;43.530;-5.646;2022-09-12T08:08:40;100440.47;;;21.59;71.30
73767;BME280;62074;43.530;-5.646;2022-09-12T08:11:08;100447.78;;;21.55;71.50
73767;BME280;62074;43.530;-5.646;2022-09-12T08:13:36;100440.47;;;21.59;71.04
73767;BME280;62074;43.530;-5.646;2022-09-12T08:16:11;100449.81;;;21.49;71.28
73767;BME280;62074;43.530;-5.646;2022-09-12T08:18:37;100442.22;;;21.55;71.09
73767;BME280;62074;43.530;-5.646;2022-09-12T08:21:05;100442.06;;;21.65;70.70
73767;BME280;62074;43.530;-5.646;2022-09-12T08:23:31;100450.13;;;21.66;70.63
73767;BME280;62074;43.530;-5.646;2022-09-12T08:26:00;100449.84;;;21.87;70.18
73767;BME280;62074;43.530;-5.646;2022-09-12T08:28:28;100459.56;;;21.89;70.04
73767;BME280;62074;43.530;-5.646;2022-09-12T08:30:59;100452.56;;;21.92;69.61
73767;BME280;62074;43.530;-5.646;2022-09-12T08:33:26;100451.03;;;21.81;69.93
73767;BME280;62074;43.530;-5.646;2022-09-12T08:36:09;100454.97;;;22.17;68.60
73767;BME280;62074;43.530;-5.646;2022-09-12T08:38:36;100458.19;;;22.43;68.07
73767;BME280;62074;43.530;-5.646;2022-09-12T08:57:51;100467.81;;;23.29;66.23
73767;BME280;62074;43.530;-5.646;2022-09-12T09:00:17;100473.19;;;23.39;66.54
73767;BME280;62074;43.530;-5.646;2022-09-12T09:03:03;100455.91;;;23.24;66.27
73767;BME280;62074;43.530;-5.646;2022-09-12T09:05:44;100478.25;;;23.37;66.60
73767;BME280;62074;43.530;-5.646;2022-09-12T09:11:28;100460.56;;;23.42;66.77
73767;BME280;62074;43.530;-5.646;2022-09-12T09:22:48;100466.66;;;23.71;64.52
73767;BME280;62074;43.530;-5.646;2022-09-12T09:25:24;100455.56;;;23.94;63.82
73767;BME280;62074;43.530;-5.646;2022-09-12T09:27:57;100461.56;;;24.01;63.42
73767;BME280;62074;43.530;-5.646;2022-09-12T09:30:24;100455.44;;;23.99;63.46
73767;BME280;62074;43.530;-5.646;2022-09-12T09:32:51;100433.59;;;24.01;63.46
73767;BME280;62074;43.530;-5.646;2022-09-12T09:38:36;100452.13;;;24.55;61.85
73767;BME280;62074;43.530;-5.646;2022-09-12T09:43:52;100442.28;;;24.89;60.84
73767;BME280;62074;43.530;-5.646;2022-09-12T09:46:18;100427.88;;;24.73;60.89
73767;BME280;62074;43.530;-5.646;2022-09-12T09:48:47;100431.63;;;24.68;60.08
73767;BME280;62074;43.530;-5.646;2022-09-12T09:51:15;100434.81;;;25.06;59.64
73767;BME280;62074;43.530;-5.646;2022-09-12T09:59:20;100440.34;;;25.86;56.51
73767;BME280;62074;43.530;-5.646;2022-09-12T10:02:07;100452.41;;;25.77;56.72
73767;BME280;62074;43.530;-5.646;2022-09-12T10:04:53;100449.09;;;25.84;56.04
73767;BME280;62074;43.530;-5.646;2022-09-12T10:07:19;100440.44;;;25.55;56.77
73767;BME280;62074;43.530;-5.646;2022-09-12T10:10:14;100447.28;;;25.79;57.10
73767;BME280;62074;43.530;-5.646;2022-09-12T10:12:40;100430.00;;;25.95;57.14
73767;BME280;62074;43.530;-5.646;2022-09-12T10:15:21;100438.06;;;26.05;56.13
73767;BME280;62074;43.530;-5.646;2022-09-12T10:17:48;100433.31;;;26.31;54.11
73767;BME280;62074;43.530;-5.646;2022-09-12T10:20:36;100424.16;;;26.69;51.94
73767;BME280;62074;43.530;-5.646;2022-09-12T10:25:47;100447.13;;;27.64;49.70
73767;BME280;62074;43.530;-5.646;2022-09-12T10:28:23;100435.22;;;28.50;46.98
73767;BME280;62074;43.530;-5.646;2022-09-12T10:30:53;100446.06;;;28.19;46.93
73767;BME280;62074;43.530;-5.646;2022-09-12T10:33:23;100453.81;;;27.13;49.61
73767;BME280;62074;43.530;-5.646;2022-09-12T10:35:51;100458.97;;;27.02;50.41
73767;BME280;62074;43.530;-5.646;2022-09-12T10:38:30;100461.13;;;26.88;50.77
73767;BME280;62074;43.530;-5.646;2022-09-12T10:41:00;100470.81;;;26.35;51.69
73767;BME280;62074;43.530;-5.646;2022-09-12T10:43:34;100430.63;;;25.92;52.67
73767;BME280;62074;43.530;-5.646;2022-09-12T10:48:38;100468.63;;;26.67;51.81
73767;BME280;62074;43.530;-5.646;2022-09-12T10:51:04;100472.69;;;26.95;51.19
73767;BME280;62074;43.530;-5.646;2022-09-12T10:53:40;100473.69;;;26.91;50.49
73767;BME280;62074;43.530;-5.646;2022-09-12T11:04:19;100452.81;;;28.06;47.65
73767;BME280;62074;43.530;-5.646;2022-09-12T11:12:14;100456.25;;;27.61;50.06
73767;BME280;62074;43.530;-5.646;2022-09-12T11:15:22;100466.38;;;27.83;49.80
73767;BME280;62074;43.530;-5.646;2022-09-12T11:18:04;100474.16;;;27.86;49.84
73767;BME280;62074;43.530;-5.646;2022-09-12T11:21:02;100453.66;;;29.50;45.10
73767;BME280;62074;43.530;-5.646;2022-09-12T11:29:35;100468.13;;;32.04;38.60
73767;BME280;62074;43.530;-5.646;2022-09-12T11:40:27;100418.09;;;34.43;33.34
73767;BME280;62074;43.530;-5.646;2022-09-12T11:42:59;100433.34;;;31.87;38.69
73767;BME280;62074;43.530;-5.646;2022-09-12T11:45:40;100438.91;;;30.74;40.81
73767;BME280;62074;43.530;-5.646;2022-09-12T11:48:12;100451.31;;;30.01;42.81
73767;BME280;62074;43.530;-5.646;2022-09-12T11:50:40;100460.34;;;29.70;42.94
73767;BME280;62074;43.530;-5.646;2022-09-12T11:53:17;100455.25;;;29.27;44.68
73767;BME280;62074;43.530;-5.646;2022-09-12T11:58:54;100440.84;;;28.50;46.20
73767;BME280;62074;43.530;-5.646;2022-09-12T12:01:27;100456.72;;;28.55;46.04
73767;BME280;62074;43.530;-5.646;2022-09-12T12:03:57;100454.84;;;28.59;46.39
73767;BME280;62074;43.530;-5.646;2022-09-12T12:06:30;100455.25;;;29.03;45.71
73767;BME280;62074;43.530;-5.646;2022-09-12T12:08:57;100437.13;;;28.92;45.25
73767;BME280;62074;43.530;-5.646;2022-09-12T12:11:34;100466.31;;;28.21;47.50
73767;BME280;62074;43.530;-5.646;2022-09-12T12:14:06;100463.88;;;28.32;47.32
73767;BME280;62074;43.530;-5.646;2022-09-12T12:16:38;100469.13;;;28.12;47.77
73767;BME280;62074;43.530;-5.646;2022-09-12T12:21:43;100444.06;;;28.28;47.80
73767;BME280;62074;43.530;-5.646;2022-09-12T12:29:03;100415.31;;;29.25;44.27
73767;BME280;62074;43.530;-5.646;2022-09-12T12:31:29;100462.84;;;28.36;47.61
73767;BME280;62074;43.530;-5.646;2022-09-12T12:34:01;100459.19;;;28.15;47.80
73767;BME280;62074;43.530;-5.646;2022-09-12T12:36:33;100464.41;;;28.04;48.49
73767;BME280;62074;43.530;-5.646;2022-09-12T12:42:00;100457.16;;;27.44;49.92
73767;BME280;62074;43.530;-5.646;2022-09-12T12:47:17;100505.69;;;27.71;49.64
73767;BME280;62074;43.530;-5.646;2022-09-12T12:53:20;100502.53;;;27.26;50.79
73767;BME280;62074;43.530;-5.646;2022-09-12T12:55:49;100471.53;;;27.43;51.17
73767;BME280;62074;43.530;-5.646;2022-09-12T12:58:32;100483.31;;;27.36;50.90
73767;BME280;62074;43.530;-5.646;2022-09-12T13:01:20;100476.50;;;27.46;49.88
73767;BME280;62074;43.530;-5.646;2022-09-12T13:04:00;100473.75;;;27.29;50.81
73767;BME280;62074;43.530;-5.646;2022-09-12T13:09:02;100481.53;;;27.70;49.43
73767;BME280;62074;43.530;-5.646;2022-09-12T13:11:34;100431.91;;;27.65;49.72
73767;BME280;62074;43.530;-5.646;2022-09-12T13:14:03;100426.72;;;27.08;51.75
73767;BME280;62074;43.530;-5.646;2022-09-12T13:19:22;100433.38;;;30.77;42.81
73767;BME280;62074;43.530;-5.646;2022-09-12T13:21:56;100430.34;;;29.90;45.06
73767;BME280;62074;43.530;-5.646;2022-09-12T13:24:22;100427.25;;;30.91;42.83
73767;BME280;62074;43.530;-5.646;2022-09-12T13:26:48;100432.22;;;31.25;41.78
73767;BME280;62074;43.530;-5.646;2022-09-12T13:29:20;100416.09;;;29.86;45.18
73767;BME280;62074;43.530;-5.646;2022-09-12T13:31:49;100401.84;;;29.43;46.04
73767;BME280;62074;43.530;-5.646;2022-09-12T13:34:23;100384.75;;;29.15;47.31
73767;BME280;62074;43.530;-5.646;2022-09-12T13:37:08;100381.00;;;28.99;47.86
73767;BME280;62074;43.530;-5.646;2022-09-12T13:39:45;100374.75;;;29.66;46.02
73767;BME280;62074;43.530;-5.646;2022-09-12T13:42:37;100359.03;;;29.53;45.91
73767;BME280;62074;43.530;-5.646;2022-09-12T13:45:34;100364.44;;;28.85;47.28
73767;BME280;62074;43.530;-5.646;2022-09-12T13:48:02;100358.63;;;29.67;45.56
73767;BME280;62074;43.530;-5.646;2022-09-12T13:50:52;100317.81;;;29.76;44.82
73767;BME280;62074;43.530;-5.646;2022-09-12T13:53:23;100326.50;;;29.43;45.72
73767;BME280;62074;43.530;-5.646;2022-09-12T13:55:53;100313.69;;;30.14;43.31
73767;BME280;62074;43.530;-5.646;2022-09-12T13:58:25;100299.84;;;30.68;42.12
73767;BME280;62074;43.530;-5.646;2022-09-12T14:03:31;100312.84;;;31.20;40.86
73767;BME280;62074;43.530;-5.646;2022-09-12T14:06:16;100311.31;;;31.07;40.19
73767;BME280;62074;43.530;-5.646;2022-09-12T14:08:44;100305.59;;;31.38;40.12
73767;BME280;62074;43.530;-5.646;2022-09-12T14:11:17;100312.53;;;31.95;38.92
73767;BME280;62074;43.530;-5.646;2022-09-12T14:13:45;100311.41;;;30.63;41.98
73767;BME280;62074;43.530;-5.646;2022-09-12T14:16:12;100292.22;;;31.19;40.07
73767;BME280;62074;43.530;-5.646;2022-09-12T14:18:41;100301.44;;;31.32;39.46
73767;BME280;62074;43.530;-5.646;2022-09-12T14:23:46;100298.28;;;32.53;36.94
73767;BME280;62074;43.530;-5.646;2022-09-12T14:26:13;100305.84;;;32.91;33.75
73767;BME280;62074;43.530;-5.646;2022-09-12T14:28:43;100298.28;;;33.51;32.41
73767;BME280;62074;43.530;-5.646;2022-09-12T14:33:50;100298.34;;;32.56;36.05
73767;BME280;62074;43.530;-5.646;2022-09-12T14:39:03;100294.00;;;31.43;37.83
73767;BME280;62074;43.530;-5.646;2022-09-12T14:41:36;100301.56;;;30.13;41.70
73767;BME280;62074;43.530;-5.646;2022-09-12T14:44:08;100318.94;;;30.43;40.94
73767;BME280;62074;43.530;-5.646;2022-09-12T14:46:40;100300.06;;;30.32;41.98
73767;BME280;62074;43.530;-5.646;2022-09-12T14:49:27;100303.25;;;31.24;40.26
73767;BME280;62074;43.530;-5.646;2022-09-12T14:52:00;100304.53;;;31.62;38.73
73767;BME280;62074;43.530;-5.646;2022-09-12T14:56:55;100300.66;;;33.46;25.94
73767;BME280;62074;43.530;-5.646;2022-09-12T14:59:37;100302.78;;;33.52;25.49
73767;BME280;62074;43.530;-5.646;2022-09-12T15:04:43;100343.69;;;32.76;25.54
73767;BME280;62074;43.530;-5.646;2022-09-12T15:12:48;100325.75;;;30.42;38.63
73767;BME280;62074;43.530;-5.646;2022-09-12T15:15:19;100331.06;;;31.38;29.03
73767;BME280;62074;43.530;-5.646;2022-09-12T15:17:45;100316.84;;;32.08;26.45
73767;BME280;62074;43.530;-5.646;2022-09-12T15:20:12;100324.28;;;32.36;26.63
73767;BME280;62074;43.530;-5.646;2022-09-12T15:22:39;100326.00;;;32.40;26.65
73767;BME280;62074;43.530;-5.646;2022-09-12T15:25:06;100328.63;;;32.10;26.64
73767;BME280;62074;43.530;-5.646;2022-09-12T15:27:32;100333.03;;;32.27;26.70
73767;BME280;62074;43.530;-5.646;2022-09-12T15:29:58;100322.66;;;31.77;26.92
73767;BME280;62074;43.530;-5.646;2022-09-12T15:32:28;100318.97;;;31.57;27.27
73767;BME280;62074;43.530;-5.646;2022-09-12T15:34:54;100318.09;;;31.37;27.53
73767;BME280;62074;43.530;-5.646;2022-09-12T15:37:22;100310.38;;;31.18;27.67
73767;BME280;62074;43.530;-5.646;2022-09-12T15:39:49;100321.06;;;31.09;28.24